首页
METAR-TAF:

METAR-TAF

机场 :

Tri-Township Airport

大草原, 伊利诺伊州, 美国

纬度: 42-02-45N, 经度: 090-06-28W, 海拔: 188米

当前天气观测

该预报发布于23分钟前的00:15 UTC
静风
温度 -3°C
湿度 86%
气压 1018 hPa
能見度: 6.4公里
阴天层高于4100英尺
小雪

METAR: KSFY 140015Z AUTO 00000KT 4SM -SN OVC041 M03/M05 A3005 RMK AO2

时间: 18:38 (00:38 UTC)


TAF: 丢失

超过4000个机场的气象观测和天气预报(METAR&TAF报告)。

可查询的气象台以黄色和红色小点在地图上表示。

将鼠标移到小点上方,可查看气象台名称。

然后点击查看天气观测和预报。

如需切换地图:点击带黑十字的绿色按钮放大地图;点击带横线的绿色按钮缩小地图;或者点击绿色箭头查看邻近地区的地图。


METAR-TAF: